sensor_id;sensor_type;location;lat;lon;timestamp;P1;durP1;ratioP1;P2;durP2;ratioP2
4583;SDS011;2304;47.606;12.186;2022-07-06T00:03:34;4.23;;;3.63;;
4583;SDS011;2304;47.606;12.186;2022-07-06T00:08:36;4.87;;;3.20;;
4583;SDS011;2304;47.606;12.186;2022-07-06T00:13:41;7.50;;;3.27;;
4583;SDS011;2304;47.606;12.186;2022-07-06T00:18:43;4.90;;;2.93;;
4583;SDS011;2304;47.606;12.186;2022-07-06T00:23:45;6.07;;;3.00;;
4583;SDS011;2304;47.606;12.186;2022-07-06T00:28:48;3.53;;;2.73;;
4583;SDS011;2304;47.606;12.186;2022-07-06T00:33:50;3.50;;;3.20;;
4583;SDS011;2304;47.606;12.186;2022-07-06T00:38:52;4.87;;;3.13;;
4583;SDS011;2304;47.606;12.186;2022-07-06T00:43:55;4.43;;;3.40;;
4583;SDS011;2304;47.606;12.186;2022-07-06T00:48:58;3.67;;;3.10;;
4583;SDS011;2304;47.606;12.186;2022-07-06T00:54:02;4.40;;;3.50;;
4583;SDS011;2304;47.606;12.186;2022-07-06T00:59:07;5.33;;;3.50;;
4583;SDS011;2304;47.606;12.186;2022-07-06T01:04:08;5.40;;;3.03;;
4583;SDS011;2304;47.606;12.186;2022-07-06T01:09:10;6.03;;;4.20;;
4583;SDS011;2304;47.606;12.186;2022-07-06T01:14:14;7.60;;;4.10;;
4583;SDS011;2304;47.606;12.186;2022-07-06T01:19:17;6.03;;;4.90;;
4583;SDS011;2304;47.606;12.186;2022-07-06T01:24:20;6.73;;;4.00;;
4583;SDS011;2304;47.606;12.186;2022-07-06T01:29:22;5.60;;;4.60;;
4583;SDS011;2304;47.606;12.186;2022-07-06T01:34:24;5.10;;;4.30;;
4583;SDS011;2304;47.606;12.186;2022-07-06T01:39:28;5.67;;;4.80;;
4583;SDS011;2304;47.606;12.186;2022-07-06T01:44:30;5.27;;;4.43;;
4583;SDS011;2304;47.606;12.186;2022-07-06T01:49:32;6.80;;;4.40;;
4583;SDS011;2304;47.606;12.186;2022-07-06T01:54:35;6.37;;;3.90;;
4583;SDS011;2304;47.606;12.186;2022-07-06T01:59:37;7.20;;;4.87;;
4583;SDS011;2304;47.606;12.186;2022-07-06T02:04:39;9.43;;;5.57;;
4583;SDS011;2304;47.606;12.186;2022-07-06T02:09:42;9.10;;;4.83;;
4583;SDS011;2304;47.606;12.186;2022-07-06T02:14:44;8.63;;;5.43;;
4583;SDS011;2304;47.606;12.186;2022-07-06T02:19:46;6.17;;;4.90;;
4583;SDS011;2304;47.606;12.186;2022-07-06T02:24:49;8.43;;;5.87;;
4583;SDS011;2304;47.606;12.186;2022-07-06T02:29:51;6.57;;;4.80;;
4583;SDS011;2304;47.606;12.186;2022-07-06T02:34:53;8.10;;;4.30;;
4583;SDS011;2304;47.606;12.186;2022-07-06T02:39:56;5.90;;;4.30;;
4583;SDS011;2304;47.606;12.186;2022-07-06T02:44:58;4.97;;;4.03;;
4583;SDS011;2304;47.606;12.186;2022-07-06T02:50:00;10.67;;;4.20;;
4583;SDS011;2304;47.606;12.186;2022-07-06T02:55:03;6.30;;;4.10;;
4583;SDS011;2304;47.606;12.186;2022-07-06T03:00:06;5.00;;;4.33;;
4583;SDS011;2304;47.606;12.186;2022-07-06T03:05:10;8.73;;;4.33;;
4583;SDS011;2304;47.606;12.186;2022-07-06T03:10:24;6.30;;;4.40;;
4583;SDS011;2304;47.606;12.186;2022-07-06T03:15:26;4.90;;;3.60;;
4583;SDS011;2304;47.606;12.186;2022-07-06T03:20:27;7.57;;;4.67;;
4583;SDS011;2304;47.606;12.186;2022-07-06T03:25:31;6.80;;;4.50;;
4583;SDS011;2304;47.606;12.186;2022-07-06T03:30:33;5.07;;;4.33;;
4583;SDS011;2304;47.606;12.186;2022-07-06T03:35:36;5.87;;;4.47;;
4583;SDS011;2304;47.606;12.186;2022-07-06T03:40:39;6.23;;;4.67;;
4583;SDS011;2304;47.606;12.186;2022-07-06T03:45:41;5.00;;;4.50;;
4583;SDS011;2304;47.606;12.186;2022-07-06T03:50:43;8.47;;;4.53;;
4583;SDS011;2304;47.606;12.186;2022-07-06T03:55:46;6.77;;;4.70;;
4583;SDS011;2304;47.606;12.186;2022-07-06T04:01:09;6.43;;;4.83;;
4583;SDS011;2304;47.606;12.186;2022-07-06T04:06:10;7.90;;;4.33;;
4583;SDS011;2304;47.606;12.186;2022-07-06T04:11:14;6.37;;;5.27;;
4583;SDS011;2304;47.606;12.186;2022-07-06T04:16:16;7.80;;;5.10;;
4583;SDS011;2304;47.606;12.186;2022-07-06T04:21:18;10.37;;;4.50;;
4583;SDS011;2304;47.606;12.186;2022-07-06T04:26:21;5.47;;;4.50;;
4583;SDS011;2304;47.606;12.186;2022-07-06T04:31:23;6.60;;;4.43;;
4583;SDS011;2304;47.606;12.186;2022-07-06T04:36:24;5.70;;;4.37;;
4583;SDS011;2304;47.606;12.186;2022-07-06T04:41:28;6.47;;;4.20;;
4583;SDS011;2304;47.606;12.186;2022-07-06T04:46:30;6.20;;;4.47;;
4583;SDS011;2304;47.606;12.186;2022-07-06T04:51:32;6.63;;;5.30;;
4583;SDS011;2304;47.606;12.186;2022-07-06T04:56:35;4.70;;;4.17;;
4583;SDS011;2304;47.606;12.186;2022-07-06T05:01:37;5.17;;;4.27;;
4583;SDS011;2304;47.606;12.186;2022-07-06T05:06:40;5.23;;;4.67;;
4583;SDS011;2304;47.606;12.186;2022-07-06T05:11:44;5.87;;;4.33;;
4583;SDS011;2304;47.606;12.186;2022-07-06T05:16:45;13.10;;;3.63;;
4583;SDS011;2304;47.606;12.186;2022-07-06T05:21:48;6.07;;;3.67;;
4583;SDS011;2304;47.606;12.186;2022-07-06T05:26:51;4.00;;;3.43;;
4583;SDS011;2304;47.606;12.186;2022-07-06T05:31:53;5.10;;;3.97;;
4583;SDS011;2304;47.606;12.186;2022-07-06T05:36:55;4.77;;;3.73;;
4583;SDS011;2304;47.606;12.186;2022-07-06T05:41:58;5.10;;;3.10;;
4583;SDS011;2304;47.606;12.186;2022-07-06T05:47:00;4.80;;;3.93;;
4583;SDS011;2304;47.606;12.186;2022-07-06T05:52:16;3.90;;;3.40;;
4583;SDS011;2304;47.606;12.186;2022-07-06T05:57:19;4.10;;;3.63;;
4583;SDS011;2304;47.606;12.186;2022-07-06T06:02:21;6.70;;;4.00;;
4583;SDS011;2304;47.606;12.186;2022-07-06T06:07:23;4.60;;;3.87;;
4583;SDS011;2304;47.606;12.186;2022-07-06T06:12:26;3.57;;;2.93;;
4583;SDS011;2304;47.606;12.186;2022-07-06T06:17:28;5.63;;;3.83;;
4583;SDS011;2304;47.606;12.186;2022-07-06T06:22:30;9.60;;;4.03;;
4583;SDS011;2304;47.606;12.186;2022-07-06T06:27:33;6.03;;;3.50;;
4583;SDS011;2304;47.606;12.186;2022-07-06T06:32:35;5.70;;;3.47;;
4583;SDS011;2304;47.606;12.186;2022-07-06T06:37:38;5.73;;;3.63;;
4583;SDS011;2304;47.606;12.186;2022-07-06T06:42:41;4.43;;;3.17;;
4583;SDS011;2304;47.606;12.186;2022-07-06T06:47:43;5.03;;;2.77;;
4583;SDS011;2304;47.606;12.186;2022-07-06T06:52:45;3.57;;;3.00;;
4583;SDS011;2304;47.606;12.186;2022-07-06T06:57:49;4.80;;;3.20;;
4583;SDS011;2304;47.606;12.186;2022-07-06T07:02:51;4.80;;;2.83;;
4583;SDS011;2304;47.606;12.186;2022-07-06T07:07:53;7.97;;;2.67;;
4583;SDS011;2304;47.606;12.186;2022-07-06T07:13:00;3.67;;;2.70;;
4583;SDS011;2304;47.606;12.186;2022-07-06T07:18:02;3.73;;;2.60;;
4583;SDS011;2304;47.606;12.186;2022-07-06T07:23:04;5.73;;;2.63;;
4583;SDS011;2304;47.606;12.186;2022-07-06T07:28:07;2.90;;;2.37;;
4583;SDS011;2304;47.606;12.186;2022-07-06T07:33:09;3.47;;;2.67;;
4583;SDS011;2304;47.606;12.186;2022-07-06T07:38:11;4.03;;;2.60;;
4583;SDS011;2304;47.606;12.186;2022-07-06T07:43:14;3.80;;;2.53;;
4583;SDS011;2304;47.606;12.186;2022-07-06T07:48:16;3.20;;;2.63;;
4583;SDS011;2304;47.606;12.186;2022-07-06T07:53:18;4.20;;;2.57;;
4583;SDS011;2304;47.606;12.186;2022-07-06T07:58:22;3.47;;;2.87;;
4583;SDS011;2304;47.606;12.186;2022-07-06T08:03:24;4.77;;;2.70;;
4583;SDS011;2304;47.606;12.186;2022-07-06T08:08:26;4.10;;;2.70;;
4583;SDS011;2304;47.606;12.186;2022-07-06T08:13:29;2.93;;;2.53;;
4583;SDS011;2304;47.606;12.186;2022-07-06T08:18:31;3.93;;;3.00;;
4583;SDS011;2304;47.606;12.186;2022-07-06T08:23:33;4.20;;;2.50;;
4583;SDS011;2304;47.606;12.186;2022-07-06T08:28:37;6.20;;;3.50;;
4583;SDS011;2304;47.606;12.186;2022-07-06T08:33:39;6.83;;;3.10;;
4583;SDS011;2304;47.606;12.186;2022-07-06T08:38:40;5.77;;;3.30;;
4583;SDS011;2304;47.606;12.186;2022-07-06T08:43:44;6.13;;;3.07;;
4583;SDS011;2304;47.606;12.186;2022-07-06T08:48:46;5.30;;;2.87;;
4583;SDS011;2304;47.606;12.186;2022-07-06T08:53:49;4.40;;;2.90;;
4583;SDS011;2304;47.606;12.186;2022-07-06T08:58:53;6.20;;;3.60;;
4583;SDS011;2304;47.606;12.186;2022-07-06T09:03:56;6.07;;;2.77;;
4583;SDS011;2304;47.606;12.186;2022-07-06T09:09:00;4.03;;;2.70;;
4583;SDS011;2304;47.606;12.186;2022-07-06T09:14:08;3.37;;;2.60;;
4583;SDS011;2304;47.606;12.186;2022-07-06T09:19:11;4.37;;;2.80;;
4583;SDS011;2304;47.606;12.186;2022-07-06T09:24:13;6.53;;;2.80;;
4583;SDS011;2304;47.606;12.186;2022-07-06T09:29:17;6.53;;;2.87;;
4583;SDS011;2304;47.606;12.186;2022-07-06T09:34:18;4.53;;;2.80;;
4583;SDS011;2304;47.606;12.186;2022-07-06T09:39:21;5.23;;;2.50;;
4583;SDS011;2304;47.606;12.186;2022-07-06T09:44:26;3.90;;;2.40;;
4583;SDS011;2304;47.606;12.186;2022-07-06T09:49:29;3.07;;;2.33;;
4583;SDS011;2304;47.606;12.186;2022-07-06T09:54:32;5.13;;;2.67;;
4583;SDS011;2304;47.606;12.186;2022-07-06T09:59:36;2.93;;;2.20;;
4583;SDS011;2304;47.606;12.186;2022-07-06T10:04:38;5.40;;;3.07;;
4583;SDS011;2304;47.606;12.186;2022-07-06T10:09:41;6.67;;;2.37;;
4583;SDS011;2304;47.606;12.186;2022-07-06T10:14:45;3.60;;;2.30;;
4583;SDS011;2304;47.606;12.186;2022-07-06T10:19:47;4.30;;;2.30;;
4583;SDS011;2304;47.606;12.186;2022-07-06T10:24:50;3.40;;;2.00;;
4583;SDS011;2304;47.606;12.186;2022-07-06T10:29:54;2.47;;;2.23;;
4583;SDS011;2304;47.606;12.186;2022-07-06T10:34:56;2.60;;;2.40;;
4583;SDS011;2304;47.606;12.186;2022-07-06T10:39:58;4.40;;;2.13;;
4583;SDS011;2304;47.606;12.186;2022-07-06T10:50:52;3.00;;;1.87;;
4583;SDS011;2304;47.606;12.186;2022-07-06T10:55:55;2.90;;;1.90;;
4583;SDS011;2304;47.606;12.186;2022-07-06T11:00:59;3.57;;;2.30;;
4583;SDS011;2304;47.606;12.186;2022-07-06T11:06:02;3.80;;;1.90;;
4583;SDS011;2304;47.606;12.186;2022-07-06T11:11:10;5.70;;;2.20;;
4583;SDS011;2304;47.606;12.186;2022-07-06T11:16:14;3.60;;;2.10;;
4583;SDS011;2304;47.606;12.186;2022-07-06T11:21:17;4.60;;;1.73;;
4583;SDS011;2304;47.606;12.186;2022-07-06T11:26:20;3.00;;;1.80;;
4583;SDS011;2304;47.606;12.186;2022-07-06T11:31:25;3.00;;;1.97;;
4583;SDS011;2304;47.606;12.186;2022-07-06T11:36:26;5.53;;;1.83;;
4583;SDS011;2304;47.606;12.186;2022-07-06T11:41:28;4.37;;;1.93;;
4583;SDS011;2304;47.606;12.186;2022-07-06T11:46:32;1.97;;;1.77;;
4583;SDS011;2304;47.606;12.186;2022-07-06T11:51:35;4.00;;;2.20;;
4583;SDS011;2304;47.606;12.186;2022-07-06T11:56:44;5.87;;;2.10;;
4583;SDS011;2304;47.606;12.186;2022-07-06T12:01:49;2.87;;;2.03;;
4583;SDS011;2304;47.606;12.186;2022-07-06T12:06:59;2.30;;;1.80;;
4583;SDS011;2304;47.606;12.186;2022-07-06T12:12:03;3.47;;;2.00;;
4583;SDS011;2304;47.606;12.186;2022-07-06T12:17:07;7.20;;;2.37;;
4583;SDS011;2304;47.606;12.186;2022-07-06T12:22:10;4.43;;;1.90;;
4583;SDS011;2304;47.606;12.186;2022-07-06T12:27:13;5.33;;;2.10;;
4583;SDS011;2304;47.606;12.186;2022-07-06T12:32:19;2.93;;;1.70;;
4583;SDS011;2304;47.606;12.186;2022-07-06T12:37:22;5.10;;;2.03;;
4583;SDS011;2304;47.606;12.186;2022-07-06T12:42:24;2.63;;;2.00;;
4583;SDS011;2304;47.606;12.186;2022-07-06T12:47:27;2.73;;;1.90;;
4583;SDS011;2304;47.606;12.186;2022-07-06T12:52:29;5.07;;;2.40;;
4583;SDS011;2304;47.606;12.186;2022-07-06T12:57:42;5.27;;;2.33;;
4583;SDS011;2304;47.606;12.186;2022-07-06T13:02:46;3.80;;;1.90;;
4583;SDS011;2304;47.606;12.186;2022-07-06T13:07:53;2.50;;;1.90;;
4583;SDS011;2304;47.606;12.186;2022-07-06T13:12:56;3.17;;;2.00;;
4583;SDS011;2304;47.606;12.186;2022-07-06T13:17:59;5.07;;;2.30;;
4583;SDS011;2304;47.606;12.186;2022-07-06T13:23:01;4.50;;;1.90;;
4583;SDS011;2304;47.606;12.186;2022-07-06T13:28:03;2.17;;;1.80;;
4583;SDS011;2304;47.606;12.186;2022-07-06T13:33:07;7.10;;;2.70;;
4583;SDS011;2304;47.606;12.186;2022-07-06T13:38:08;4.97;;;2.10;;
4583;SDS011;2304;47.606;12.186;2022-07-06T13:43:10;2.87;;;1.83;;
4583;SDS011;2304;47.606;12.186;2022-07-06T13:48:13;3.07;;;2.13;;
4583;SDS011;2304;47.606;12.186;2022-07-06T13:53:15;2.00;;;1.80;;
4583;SDS011;2304;47.606;12.186;2022-07-06T13:58:17;3.93;;;2.43;;
4583;SDS011;2304;47.606;12.186;2022-07-06T14:03:21;3.20;;;2.00;;
4583;SDS011;2304;47.606;12.186;2022-07-06T14:08:29;3.10;;;2.00;;
4583;SDS011;2304;47.606;12.186;2022-07-06T14:13:31;3.50;;;2.07;;
4583;SDS011;2304;47.606;12.186;2022-07-06T14:18:34;2.80;;;2.00;;
4583;SDS011;2304;47.606;12.186;2022-07-06T14:23:36;2.70;;;2.10;;
4583;SDS011;2304;47.606;12.186;2022-07-06T14:28:39;4.27;;;2.10;;
4583;SDS011;2304;47.606;12.186;2022-07-06T14:33:42;3.40;;;1.90;;
4583;SDS011;2304;47.606;12.186;2022-07-06T14:38:44;4.80;;;1.80;;
4583;SDS011;2304;47.606;12.186;2022-07-06T14:43:46;4.20;;;2.10;;
4583;SDS011;2304;47.606;12.186;2022-07-06T14:48:49;2.93;;;1.97;;
4583;SDS011;2304;47.606;12.186;2022-07-06T14:53:51;3.20;;;2.13;;
4583;SDS011;2304;47.606;12.186;2022-07-06T14:58:53;9.17;;;4.20;;
4583;SDS011;2304;47.606;12.186;2022-07-06T15:03:56;2.87;;;2.10;;
4583;SDS011;2304;47.606;12.186;2022-07-06T15:08:58;21.27;;;7.30;;
4583;SDS011;2304;47.606;12.186;2022-07-06T15:14:01;7.30;;;2.27;;
4583;SDS011;2304;47.606;12.186;2022-07-06T15:19:04;4.67;;;2.20;;
4583;SDS011;2304;47.606;12.186;2022-07-06T15:24:06;4.07;;;1.80;;
4583;SDS011;2304;47.606;12.186;2022-07-06T15:29:08;5.23;;;2.30;;
4583;SDS011;2304;47.606;12.186;2022-07-06T15:34:12;3.10;;;2.23;;
4583;SDS011;2304;47.606;12.186;2022-07-06T15:39:13;3.30;;;2.40;;
4583;SDS011;2304;47.606;12.186;2022-07-06T15:44:15;2.80;;;2.30;;
4583;SDS011;2304;47.606;12.186;2022-07-06T15:49:19;4.57;;;2.43;;
4583;SDS011;2304;47.606;12.186;2022-07-06T15:54:20;5.10;;;2.33;;
4583;SDS011;2304;47.606;12.186;2022-07-06T15:59:22;2.93;;;2.07;;
4583;SDS011;2304;47.606;12.186;2022-07-06T16:04:26;4.03;;;2.20;;
4583;SDS011;2304;47.606;12.186;2022-07-06T16:09:29;3.43;;;2.30;;
4583;SDS011;2304;47.606;12.186;2022-07-06T16:14:31;5.10;;;2.27;;
4583;SDS011;2304;47.606;12.186;2022-07-06T16:19:34;6.50;;;2.30;;
4583;SDS011;2304;47.606;12.186;2022-07-06T16:24:36;4.07;;;2.20;;
4583;SDS011;2304;47.606;12.186;2022-07-06T16:29:39;4.50;;;2.50;;
4583;SDS011;2304;47.606;12.186;2022-07-06T16:34:43;2.13;;;1.90;;
4583;SDS011;2304;47.606;12.186;2022-07-06T16:39:45;4.33;;;2.30;;
4583;SDS011;2304;47.606;12.186;2022-07-06T16:44:47;5.83;;;2.83;;
4583;SDS011;2304;47.606;12.186;2022-07-06T16:49:50;4.00;;;2.60;;
4583;SDS011;2304;47.606;12.186;2022-07-06T16:54:52;4.00;;;3.17;;
4583;SDS011;2304;47.606;12.186;2022-07-06T16:59:55;4.57;;;2.70;;
4583;SDS011;2304;47.606;12.186;2022-07-06T17:04:58;3.67;;;2.60;;
4583;SDS011;2304;47.606;12.186;2022-07-06T17:10:00;5.63;;;2.63;;
4583;SDS011;2304;47.606;12.186;2022-07-06T17:15:02;8.90;;;2.73;;
4583;SDS011;2304;47.606;12.186;2022-07-06T17:20:07;6.73;;;2.40;;
4583;SDS011;2304;47.606;12.186;2022-07-06T17:25:09;5.03;;;2.40;;
4583;SDS011;2304;47.606;12.186;2022-07-06T17:30:12;4.57;;;2.40;;
4583;SDS011;2304;47.606;12.186;2022-07-06T17:35:15;5.40;;;2.70;;
4583;SDS011;2304;47.606;12.186;2022-07-06T17:40:17;3.87;;;2.50;;
4583;SDS011;2304;47.606;12.186;2022-07-06T17:45:22;4.47;;;2.60;;
4583;SDS011;2304;47.606;12.186;2022-07-06T17:50:25;5.27;;;2.67;;
4583;SDS011;2304;47.606;12.186;2022-07-06T17:55:27;3.73;;;2.30;;
4583;SDS011;2304;47.606;12.186;2022-07-06T18:00:29;3.70;;;2.40;;
4583;SDS011;2304;47.606;12.186;2022-07-06T18:05:34;3.90;;;2.70;;
4583;SDS011;2304;47.606;12.186;2022-07-06T18:10:37;3.40;;;2.37;;
4583;SDS011;2304;47.606;12.186;2022-07-06T18:15:39;4.33;;;2.47;;
4583;SDS011;2304;47.606;12.186;2022-07-06T18:20:42;4.53;;;2.70;;
4583;SDS011;2304;47.606;12.186;2022-07-06T18:25:44;5.27;;;2.83;;
4583;SDS011;2304;47.606;12.186;2022-07-06T18:30:46;4.23;;;2.87;;
4583;SDS011;2304;47.606;12.186;2022-07-06T18:35:51;3.93;;;2.40;;
4583;SDS011;2304;47.606;12.186;2022-07-06T18:40:53;4.83;;;3.03;;
4583;SDS011;2304;47.606;12.186;2022-07-06T18:45:56;2.80;;;2.50;;
4583;SDS011;2304;47.606;12.186;2022-07-06T18:51:00;7.10;;;2.50;;
4583;SDS011;2304;47.606;12.186;2022-07-06T18:56:02;5.03;;;2.90;;
4583;SDS011;2304;47.606;12.186;2022-07-06T19:01:04;3.13;;;2.83;;
4583;SDS011;2304;47.606;12.186;2022-07-06T19:06:07;2.80;;;2.43;;
4583;SDS011;2304;47.606;12.186;2022-07-06T19:11:09;4.17;;;2.60;;
4583;SDS011;2304;47.606;12.186;2022-07-06T19:16:11;4.57;;;2.90;;
4583;SDS011;2304;47.606;12.186;2022-07-06T19:21:14;3.87;;;2.67;;
4583;SDS011;2304;47.606;12.186;2022-07-06T19:26:16;4.10;;;2.83;;
4583;SDS011;2304;47.606;12.186;2022-07-06T19:31:18;4.00;;;2.97;;
4583;SDS011;2304;47.606;12.186;2022-07-06T19:36:21;4.60;;;2.93;;
4583;SDS011;2304;47.606;12.186;2022-07-06T19:41:23;4.43;;;2.63;;
4583;SDS011;2304;47.606;12.186;2022-07-06T19:46:25;6.40;;;2.90;;
4583;SDS011;2304;47.606;12.186;2022-07-06T19:51:28;3.80;;;2.50;;
4583;SDS011;2304;47.606;12.186;2022-07-06T19:56:30;4.60;;;2.87;;
4583;SDS011;2304;47.606;12.186;2022-07-06T20:01:34;4.70;;;2.97;;
4583;SDS011;2304;47.606;12.186;2022-07-06T20:06:38;4.53;;;3.10;;
4583;SDS011;2304;47.606;12.186;2022-07-06T20:11:39;3.47;;;2.80;;
4583;SDS011;2304;47.606;12.186;2022-07-06T20:16:41;2.77;;;2.47;;
4583;SDS011;2304;47.606;12.186;2022-07-06T20:21:45;4.77;;;2.87;;
4583;SDS011;2304;47.606;12.186;2022-07-06T20:26:47;3.40;;;3.03;;
4583;SDS011;2304;47.606;12.186;2022-07-06T20:31:48;5.07;;;2.77;;
4583;SDS011;2304;47.606;12.186;2022-07-06T20:36:52;2.93;;;2.50;;
4583;SDS011;2304;47.606;12.186;2022-07-06T20:41:54;5.07;;;3.37;;
4583;SDS011;2304;47.606;12.186;2022-07-06T20:46:55;10.80;;;3.23;;
4583;SDS011;2304;47.606;12.186;2022-07-06T20:51:59;3.90;;;2.60;;
4583;SDS011;2304;47.606;12.186;2022-07-06T20:57:01;6.40;;;2.87;;
4583;SDS011;2304;47.606;12.186;2022-07-06T21:02:03;4.73;;;2.90;;
4583;SDS011;2304;47.606;12.186;2022-07-06T21:07:07;9.30;;;3.23;;
4583;SDS011;2304;47.606;12.186;2022-07-06T21:12:09;9.47;;;3.20;;
4583;SDS011;2304;47.606;12.186;2022-07-06T21:17:11;5.77;;;2.80;;
4583;SDS011;2304;47.606;12.186;2022-07-06T21:22:14;6.10;;;3.13;;
4583;SDS011;2304;47.606;12.186;2022-07-06T21:27:16;5.40;;;3.30;;
4583;SDS011;2304;47.606;12.186;2022-07-06T21:32:18;3.60;;;2.87;;
4583;SDS011;2304;47.606;12.186;2022-07-06T21:37:21;5.67;;;2.67;;
4583;SDS011;2304;47.606;12.186;2022-07-06T21:42:25;4.00;;;3.23;;
4583;SDS011;2304;47.606;12.186;2022-07-06T21:47:27;3.97;;;3.10;;
4583;SDS011;2304;47.606;12.186;2022-07-06T21:52:30;4.60;;;3.37;;
4583;SDS011;2304;47.606;12.186;2022-07-06T21:57:32;5.93;;;3.27;;
4583;SDS011;2304;47.606;12.186;2022-07-06T22:02:33;6.13;;;3.13;;
4583;SDS011;2304;47.606;12.186;2022-07-06T22:07:37;4.77;;;3.20;;
4583;SDS011;2304;47.606;12.186;2022-07-06T22:12:39;4.53;;;3.40;;
4583;SDS011;2304;47.606;12.186;2022-07-06T22:17:40;3.50;;;3.20;;
4583;SDS011;2304;47.606;12.186;2022-07-06T22:22:44;3.70;;;2.90;;
4583;SDS011;2304;47.606;12.186;2022-07-06T22:27:45;3.10;;;2.80;;
4583;SDS011;2304;47.606;12.186;2022-07-06T22:32:47;4.37;;;3.30;;
4583;SDS011;2304;47.606;12.186;2022-07-06T22:37:52;4.10;;;3.20;;
4583;SDS011;2304;47.606;12.186;2022-07-06T22:42:54;6.93;;;3.20;;
4583;SDS011;2304;47.606;12.186;2022-07-06T22:47:58;3.33;;;2.80;;
4583;SDS011;2304;47.606;12.186;2022-07-06T22:53:02;4.43;;;2.73;;
4583;SDS011;2304;47.606;12.186;2022-07-06T22:58:03;3.60;;;3.27;;
4583;SDS011;2304;47.606;12.186;2022-07-06T23:03:05;3.90;;;3.20;;
4583;SDS011;2304;47.606;12.186;2022-07-06T23:08:09;5.17;;;3.67;;
4583;SDS011;2304;47.606;12.186;2022-07-06T23:13:11;4.40;;;3.20;;
4583;SDS011;2304;47.606;12.186;2022-07-06T23:18:13;4.43;;;3.30;;
4583;SDS011;2304;47.606;12.186;2022-07-06T23:23:16;4.13;;;3.27;;
4583;SDS011;2304;47.606;12.186;2022-07-06T23:28:18;3.57;;;3.27;;
4583;SDS011;2304;47.606;12.186;2022-07-06T23:33:20;3.67;;;3.10;;
4583;SDS011;2304;47.606;12.186;2022-07-06T23:38:23;4.27;;;3.00;;
4583;SDS011;2304;47.606;12.186;2022-07-06T23:43:25;7.00;;;3.30;;
4583;SDS011;2304;47.606;12.186;2022-07-06T23:48:27;5.63;;;3.20;;
4583;SDS011;2304;47.606;12.186;2022-07-06T23:53:30;4.43;;;3.33;;
4583;SDS011;2304;47.606;12.186;2022-07-06T23:58:32;4.53;;;3.70;;
